createdAt,value
2019-01-04T00:00:56.159Z,99.99
2019-01-04T00:01:56.173Z,99.99
2019-01-04T00:02:56.194Z,99.99
2019-01-04T00:03:56.214Z,99.99
2019-01-04T00:04:56.228Z,99.99
2019-01-04T00:05:56.449Z,99.99
2019-01-04T00:06:56.267Z,99.99
2019-01-04T00:07:56.289Z,99.99
2019-01-04T00:08:56.309Z,99.99
2019-01-04T00:09:56.320Z,99.99
2019-01-04T00:10:56.340Z,99.99
2019-01-04T00:11:56.356Z,99.99
2019-01-04T00:12:56.374Z,99.99
2019-01-04T00:13:56.393Z,99.99
2019-01-04T00:14:56.411Z,99.99
2019-01-04T00:15:56.431Z,99.99
2019-01-04T00:16:56.450Z,99.99
2019-01-04T00:17:56.467Z,99.99
2019-01-04T00:18:56.490Z,99.99
2019-01-04T00:19:56.504Z,99.99
2019-01-04T00:20:56.523Z,99.99
2019-01-04T00:21:56.543Z,99.99
2019-01-04T00:22:56.557Z,99.99
2019-01-04T00:23:56.575Z,99.99
2019-01-04T00:24:56.599Z,99.99
2019-01-04T00:25:56.614Z,99.99
2019-01-04T00:26:56.632Z,99.99
2019-01-04T00:27:56.651Z,99.99
2019-01-04T00:28:56.669Z,99.99
2019-01-04T00:29:56.689Z,99.99
2019-01-04T00:30:56.707Z,99.99
2019-01-04T00:31:56.725Z,99.99
2019-01-04T00:32:56.743Z,99.99
2019-01-04T00:33:56.760Z,99.99
2019-01-04T00:34:56.783Z,99.99
2019-01-04T00:35:56.847Z,99.99
2019-01-04T00:36:56.819Z,99.99
2019-01-04T00:37:56.834Z,99.99
2019-01-04T00:38:56.854Z,99.99
2019-01-04T00:39:56.874Z,99.99
2019-01-04T00:40:56.891Z,99.99
2019-01-04T00:41:56.910Z,99.99
2019-01-04T00:42:56.929Z,99.99
2019-01-04T00:43:56.950Z,99.99
2019-01-04T00:44:56.965Z,99.99
2019-01-04T00:45:56.985Z,99.99
2019-01-04T00:46:57.004Z,99.99
2019-01-04T00:47:57.022Z,99.99
2019-01-04T00:48:57.043Z,99.99
2019-01-04T00:49:57.063Z,99.99
2019-01-04T00:50:57.076Z,99.99
2019-01-04T00:51:57.097Z,99.99
2019-01-04T00:52:57.114Z,99.99
2019-01-04T00:53:57.134Z,99.99
2019-01-04T00:54:57.152Z,99.99
2019-01-04T00:55:57.173Z,99.99
2019-01-04T00:56:57.190Z,99.99
2019-01-04T00:57:57.209Z,99.99
2019-01-04T00:58:57.228Z,99.99
2019-01-04T00:59:57.245Z,99.99
2019-01-04T01:00:57.271Z,99.99
2019-01-04T01:01:57.283Z,99.99
2019-01-04T01:02:57.302Z,99.99
2019-01-04T01:03:57.324Z,99.99
2019-01-04T01:04:57.340Z,99.99
2019-01-04T01:05:57.359Z,99.99
2019-01-04T01:06:57.378Z,99.99
2019-01-04T01:07:57.397Z,99.99
2019-01-04T01:08:57.415Z,99.99
2019-01-04T01:09:57.437Z,99.99
2019-01-04T01:10:57.453Z,99.99
2019-01-04T01:11:57.471Z,99.99
2019-01-04T01:12:57.495Z,99.99
2019-01-04T01:13:57.510Z,99.99
2019-01-04T01:14:57.531Z,99.99
2019-01-04T01:15:57.549Z,99.99
2019-01-04T01:16:57.568Z,99.99
2019-01-04T01:17:57.586Z,99.99
2019-01-04T01:18:57.606Z,99.99
2019-01-04T01:19:57.624Z,99.99
2019-01-04T01:20:57.645Z,99.99
2019-01-04T01:21:57.665Z,99.99
2019-01-04T01:22:57.680Z,99.99
2019-01-04T01:23:57.700Z,99.99
2019-01-04T01:24:57.718Z,99.99
2019-01-04T01:25:57.739Z,99.99
2019-01-04T01:26:57.758Z,99.99
2019-01-04T01:27:57.776Z,99.99
2019-01-04T01:28:57.795Z,99.99
2019-01-04T01:29:57.813Z,99.99
2019-01-04T01:30:57.831Z,99.99
2019-01-04T01:31:57.853Z,99.99
2019-01-04T01:32:57.871Z,99.99
2019-01-04T01:33:57.894Z,99.99
2019-01-04T01:34:57.910Z,99.99
2019-01-04T01:35:57.929Z,99.99
2019-01-04T01:36:57.948Z,99.99
2019-01-04T01:37:57.968Z,99.99
2019-01-04T01:38:57.988Z,99.99
2019-01-04T01:39:58.006Z,99.99
2019-01-04T01:40:58.023Z,99.99
2019-01-04T01:41:58.047Z,99.99
2019-01-04T01:42:58.061Z,99.99
2019-01-04T01:43:58.084Z,99.99
2019-01-04T01:44:58.105Z,99.99
2019-01-04T01:45:58.120Z,99.99
2019-01-04T01:46:58.140Z,99.99
2019-01-04T01:47:58.158Z,99.99
2019-01-04T01:48:58.178Z,99.99
2019-01-04T01:49:58.201Z,99.99
2019-01-04T01:50:58.215Z,99.99
2019-01-04T01:51:58.234Z,99.99
2019-01-04T01:52:58.255Z,99.99
2019-01-04T01:53:58.275Z,99.99
2019-01-04T01:54:58.296Z,99.99
2019-01-04T01:55:58.312Z,99.99
2019-01-04T01:56:58.335Z,99.99
2019-01-04T01:57:58.357Z,99.99
2019-01-04T01:58:58.371Z,99.99
2019-01-04T01:59:58.390Z,99.99
2019-01-04T02:00:58.410Z,99.99
2019-01-04T02:01:58.431Z,99.99
2019-01-04T02:02:58.447Z,99.99
2019-01-04T02:03:58.470Z,99.99
2019-01-04T02:04:58.488Z,99.99
2019-01-04T02:05:58.506Z,99.99
2019-01-04T02:06:58.526Z,99.99
2019-01-04T02:07:58.547Z,99.99
2019-01-04T02:08:58.564Z,99.99
2019-01-04T02:09:58.584Z,99.99
2019-01-04T02:10:58.605Z,99.99
2019-01-04T02:11:58.623Z,99.99
2019-01-04T02:12:58.647Z,99.99
2019-01-04T02:13:58.667Z,99.99
2019-01-04T02:14:58.690Z,99.99
2019-01-04T02:15:58.708Z,99.99
2019-01-04T02:16:58.728Z,99.99
2019-01-04T02:17:58.741Z,99.99
2019-01-04T02:18:58.761Z,99.99
2019-01-04T02:19:58.780Z,99.99
2019-01-04T02:20:58.801Z,99.99
2019-01-04T02:21:58.821Z,99.99
2019-01-04T02:22:58.840Z,99.99
2019-01-04T02:23:58.859Z,99.99
2019-01-04T02:24:58.884Z,99.99
2019-01-04T02:25:58.900Z,99.99
2019-01-04T02:26:58.919Z,99.99
2019-01-04T02:27:58.940Z,99.99
2019-01-04T02:28:58.960Z,99.99
2019-01-04T02:29:58.977Z,99.99
2019-01-04T02:30:59.005Z,99.99
2019-01-04T02:31:59.020Z,99.99
2019-01-04T02:32:59.038Z,99.99
2019-01-04T02:33:59.057Z,99.99
2019-01-04T02:34:59.077Z,99.99
2019-01-04T02:35:59.095Z,99.99
2019-01-04T02:36:59.117Z,99.99
2019-01-04T02:37:59.139Z,99.99
2019-01-04T02:38:59.157Z,99.99
2019-01-04T02:39:59.188Z,99.99
2019-01-04T02:40:59.194Z,99.99
2019-01-04T02:41:59.216Z,99.99
2019-01-04T02:42:59.238Z,99.99
2019-01-04T02:43:59.258Z,99.99
2019-01-04T02:44:59.283Z,99.99
2019-01-04T02:45:59.295Z,99.99
2019-01-04T02:46:59.315Z,99.99
2019-01-04T02:47:59.338Z,99.99
2019-01-04T02:48:59.359Z,99.99
2019-01-04T02:49:59.373Z,99.99
2019-01-04T02:50:59.394Z,99.99
2019-01-04T02:51:59.411Z,99.99
2019-01-04T02:52:59.434Z,99.99
2019-01-04T02:53:59.454Z,99.99
2019-01-04T02:54:59.472Z,99.99
2019-01-04T02:55:59.492Z,99.99
2019-01-04T02:56:59.513Z,99.99
2019-01-04T02:57:59.531Z,99.99
2019-01-04T02:58:59.549Z,99.99
2019-01-04T02:59:59.574Z,99.99
2019-01-04T03:00:59.594Z,99.99
2019-01-04T03:01:59.611Z,99.99
2019-01-04T03:02:59.630Z,99.99
2019-01-04T03:03:59.648Z,99.99
2019-01-04T03:04:59.688Z,99.99
2019-01-04T03:05:59.689Z,99.99
2019-01-04T03:06:59.707Z,99.99
2019-01-04T03:07:59.729Z,99.99
2019-01-04T03:08:59.749Z,99.99
2019-01-04T03:09:59.771Z,99.99
2019-01-04T03:10:59.788Z,99.99
2019-01-04T03:11:59.812Z,99.99
2019-01-04T03:12:59.827Z,99.99
2019-01-04T03:13:59.847Z,99.99
2019-01-04T03:14:59.867Z,99.99
2019-01-04T03:15:59.905Z,99.99
2019-01-04T03:16:59.926Z,99.99
2019-01-04T03:17:59.935Z,99.99
2019-01-04T03:18:59.948Z,99.99
2019-01-04T03:19:59.965Z,99.99
2019-01-04T03:20:59.985Z,99.99
2019-01-04T03:22:00.009Z,99.99
2019-01-04T03:23:00.026Z,99.99
2019-01-04T03:24:00.044Z,99.99
2019-01-04T03:25:00.084Z,99.99
2019-01-04T03:26:00.089Z,99.99
2019-01-04T03:27:00.106Z,99.99
2019-01-04T03:28:00.126Z,99.99
2019-01-04T03:29:00.144Z,99.99
2019-01-04T03:30:00.178Z,99.99
2019-01-04T03:31:00.292Z,99.99
2019-01-04T03:32:00.207Z,99.99
2019-01-04T03:33:00.229Z,99.99
2019-01-04T03:34:00.244Z,99.99
2019-01-04T03:35:00.278Z,99.99
2019-01-04T03:36:00.287Z,99.99
2019-01-04T03:37:00.304Z,99.99
2019-01-04T03:38:00.326Z,99.99
2019-01-04T03:39:00.348Z,99.99
2019-01-04T03:40:00.366Z,99.99
2019-01-04T03:41:00.385Z,99.99
2019-01-04T03:42:00.404Z,99.99
2019-01-04T03:43:00.422Z,99.99
2019-01-04T03:44:00.445Z,99.99
2019-01-04T03:45:00.463Z,99.99
2019-01-04T03:46:00.488Z,99.99
2019-01-04T03:47:00.507Z,99.99
2019-01-04T03:48:00.526Z,99.99
2019-01-04T03:49:00.543Z,99.99
2019-01-04T03:50:00.564Z,99.99
2019-01-04T03:51:00.581Z,99.99
2019-01-04T03:52:00.615Z,99.99
2019-01-04T03:53:00.621Z,99.99
2019-01-04T03:54:00.644Z,99.99
2019-01-04T03:55:00.661Z,99.99
2019-01-04T03:56:00.681Z,99.99
2019-01-04T03:57:00.701Z,99.99
2019-01-04T03:58:00.722Z,99.99
2019-01-04T03:59:00.740Z,99.99
2019-01-04T04:00:00.761Z,99.99
2019-01-04T04:01:00.780Z,99.99
2019-01-04T04:02:00.805Z,99.99
2019-01-04T04:03:00.822Z,99.99
2019-01-04T04:04:00.840Z,99.99
2019-01-04T04:05:00.859Z,99.99
2019-01-04T04:06:00.894Z,99.99
2019-01-04T04:07:00.899Z,99.99
2019-01-04T04:08:00.919Z,99.99
2019-01-04T04:09:00.942Z,99.99
2019-01-04T04:10:00.963Z,99.99
2019-01-04T04:11:00.980Z,99.99
2019-01-04T04:12:00.998Z,99.99
2019-01-04T04:13:01.020Z,99.99
2019-01-04T04:14:01.039Z,99.99
2019-01-04T04:15:01.058Z,99.99
2019-01-04T04:16:01.079Z,99.99
2019-01-04T04:17:01.104Z,99.99
2019-01-04T04:18:01.121Z,99.99
2019-01-04T04:19:01.140Z,99.99
2019-01-04T04:20:01.159Z,99.99
2019-01-04T04:21:01.190Z,99.99
2019-01-04T04:22:01.200Z,99.99
2019-01-04T04:23:01.219Z,99.99
2019-01-04T04:24:01.237Z,99.99
2019-01-04T04:25:01.263Z,99.99
2019-01-04T04:26:01.286Z,99.46
2019-01-04T04:27:01.300Z,98.90
2019-01-04T04:28:01.322Z,97.85
2019-01-04T04:29:01.339Z,98.71
2019-01-04T04:30:01.360Z,98.23
2019-01-04T04:31:01.379Z,98.71
2019-01-04T04:32:01.400Z,96.91
2019-01-04T04:33:01.423Z,96.25
2019-01-04T04:34:01.440Z,95.50
2019-01-04T04:35:01.459Z,94.65
2019-01-04T04:36:01.481Z,94.18
2019-01-04T04:37:01.504Z,93.32
2019-01-04T04:38:01.520Z,93.51
2019-01-04T04:39:01.541Z,92.85
2019-01-04T04:40:01.560Z,91.63
2019-01-04T04:41:01.581Z,91.91
2019-01-04T04:42:01.603Z,90.68
2019-01-04T04:43:01.621Z,91.44
2019-01-04T04:44:01.643Z,91.35
2019-01-04T04:45:01.668Z,90.31
2019-01-04T04:46:01.683Z,89.64
2019-01-04T04:47:01.704Z,88.89
2019-01-04T04:48:01.725Z,88.89
2019-01-04T04:49:01.742Z,88.23
2019-01-04T04:50:01.764Z,87.76
2019-01-04T04:51:01.785Z,87.95
2019-01-04T04:52:01.807Z,87.66
2019-01-04T04:53:01.824Z,87.76
2019-01-04T04:54:01.845Z,86.82
2019-01-04T04:55:01.866Z,85.96
2019-01-04T04:56:01.888Z,86.34
2019-01-04T04:57:01.908Z,86.25
2019-01-04T04:58:01.927Z,86.15
2019-01-04T04:59:01.947Z,86.06
2019-01-04T05:00:01.966Z,86.25
2019-01-04T05:01:01.987Z,85.87
2019-01-04T05:02:02.008Z,85.40
2019-01-04T05:03:02.029Z,85.87
2019-01-04T05:04:02.051Z,84.45
2019-01-04T05:05:02.071Z,84.55
2019-01-04T05:06:02.090Z,83.98
2019-01-04T05:07:02.110Z,83.14
2019-01-04T05:08:02.128Z,83.42
2019-01-04T05:09:02.149Z,82.57
2019-01-04T05:10:02.173Z,82.19
2019-01-04T05:11:02.193Z,82.19
2019-01-04T05:12:02.208Z,82.00
2019-01-04T05:13:02.230Z,82.47
2019-01-04T05:14:02.262Z,81.24
2019-01-04T05:15:02.269Z,80.77
2019-01-04T05:16:02.301Z,81.62
2019-01-04T05:17:02.310Z,80.77
2019-01-04T05:18:02.353Z,81.91
2019-01-04T05:19:02.353Z,81.62
2019-01-04T05:20:02.380Z,80.68
2019-01-04T05:21:02.392Z,80.40
2019-01-04T05:22:02.412Z,81.43
2019-01-04T05:23:02.437Z,80.96
2019-01-04T05:24:02.452Z,81.53
2019-01-04T05:25:02.482Z,81.62
2019-01-04T05:26:02.499Z,80.49
2019-01-04T05:27:02.516Z,80.68
2019-01-04T05:28:02.535Z,80.40
2019-01-04T05:29:02.555Z,80.96
2019-01-04T05:30:02.576Z,79.93
2019-01-04T05:31:02.595Z,78.79
2019-01-04T05:32:02.617Z,79.27
2019-01-04T05:33:02.637Z,79.17
2019-01-04T05:34:02.657Z,78.98
2019-01-04T05:35:02.684Z,79.27
2019-01-04T05:36:02.700Z,78.51
2019-01-04T05:37:02.721Z,79.46
2019-01-04T05:38:02.742Z,79.17
2019-01-04T05:39:02.757Z,79.27
2019-01-04T05:40:02.784Z,79.08
2019-01-04T05:41:02.800Z,78.89
2019-01-04T05:42:02.819Z,78.98
2019-01-04T05:43:02.842Z,78.98
2019-01-04T05:44:02.862Z,79.36
2019-01-04T05:45:02.882Z,79.08
2019-01-04T05:46:02.901Z,79.08
2019-01-04T05:47:02.923Z,78.79
2019-01-04T05:48:02.943Z,78.04
2019-01-04T05:49:02.965Z,78.42
2019-01-04T05:50:02.982Z,77.85
2019-01-04T05:51:03.005Z,77.66
2019-01-04T05:52:03.028Z,77.19
2019-01-04T05:53:03.047Z,76.72
2019-01-04T05:54:03.066Z,77.37
2019-01-04T05:55:03.085Z,77.19
2019-01-04T05:56:03.104Z,77.09
2019-01-04T05:57:03.125Z,76.15
2019-01-04T05:58:03.147Z,76.43
2019-01-04T05:59:03.165Z,76.62
2019-01-04T06:00:03.194Z,76.43
2019-01-04T06:01:03.208Z,75.87
2019-01-04T06:02:03.228Z,76.72
2019-01-04T06:03:03.248Z,76.06
2019-01-04T06:04:03.271Z,75.40
2019-01-04T06:05:03.288Z,76.06
2019-01-04T06:06:03.311Z,76.06
2019-01-04T06:07:03.331Z,75.49
2019-01-04T06:08:03.349Z,75.59
2019-01-04T06:09:03.377Z,75.49
2019-01-04T06:10:03.395Z,75.40
2019-01-04T06:11:03.412Z,75.02
2019-01-04T06:12:03.432Z,75.21
2019-01-04T06:13:03.456Z,75.21
2019-01-04T06:14:03.475Z,74.07
2019-01-04T06:15:03.493Z,74.36
2019-01-04T06:16:03.514Z,74.17
2019-01-04T06:17:03.535Z,74.07
2019-01-04T06:18:03.558Z,74.45
2019-01-04T06:19:03.576Z,73.79
2019-01-04T06:20:03.600Z,73.79
2019-01-04T06:21:03.619Z,73.22
2019-01-04T06:22:03.641Z,73.69
2019-01-04T06:23:03.657Z,73.51
2019-01-04T06:24:03.677Z,73.13
2019-01-04T06:25:03.729Z,73.60
2019-01-04T06:26:03.719Z,73.41
2019-01-04T06:27:03.741Z,72.85
2019-01-04T06:28:03.762Z,73.03
2019-01-04T06:29:03.779Z,72.38
2019-01-04T06:30:03.801Z,72.28
2019-01-04T06:31:03.829Z,72.09
2019-01-04T06:32:03.842Z,72.19
2019-01-04T06:33:03.866Z,72.19
2019-01-04T06:34:03.892Z,72.56
2019-01-04T06:35:03.904Z,71.91
2019-01-04T06:36:03.929Z,71.62
2019-01-04T06:37:03.954Z,71.43
2019-01-04T06:38:03.969Z,71.06
2019-01-04T06:39:03.988Z,71.06
2019-01-04T06:40:04.007Z,70.49
2019-01-04T06:41:04.029Z,70.49
2019-01-04T06:42:04.048Z,70.39
2019-01-04T06:43:04.069Z,70.49
2019-01-04T06:44:04.091Z,70.58
2019-01-04T06:45:04.114Z,70.02
2019-01-04T06:46:04.134Z,70.30
2019-01-04T06:47:04.152Z,70.30
2019-01-04T06:48:04.173Z,69.92
2019-01-04T06:49:04.194Z,70.02
2019-01-04T06:50:04.213Z,69.73
2019-01-04T06:51:04.234Z,69.83
2019-01-04T06:52:04.258Z,69.17
2019-01-04T06:53:04.276Z,69.35
2019-01-04T06:54:04.299Z,69.17
2019-01-04T06:55:04.316Z,69.35
2019-01-04T06:56:04.338Z,69.17
2019-01-04T06:57:04.358Z,68.98
2019-01-04T06:58:04.380Z,68.70
2019-01-04T06:59:04.399Z,68.41
2019-01-04T07:00:04.421Z,68.51
2019-01-04T07:01:04.442Z,68.60
2019-01-04T07:02:04.465Z,68.41
2019-01-04T07:03:04.484Z,67.94
2019-01-04T07:04:04.506Z,68.60
2019-01-04T07:05:04.525Z,68.70
2019-01-04T07:06:04.548Z,68.44
2019-01-04T07:07:04.569Z,68.63
2019-01-04T07:08:04.590Z,68.13
2019-01-04T07:09:04.612Z,68.16
2019-01-04T07:10:04.630Z,68.16
2019-01-04T07:11:04.652Z,67.60
2019-01-04T07:12:04.671Z,68.35
2019-01-04T07:13:04.693Z,67.60
2019-01-04T07:14:04.714Z,67.60
2019-01-04T07:15:04.734Z,67.69
2019-01-04T07:16:04.756Z,68.07
2019-01-04T07:17:04.776Z,68.07
2019-01-04T07:18:04.796Z,68.26
2019-01-04T07:19:04.817Z,67.79
2019-01-04T07:20:04.842Z,68.73
2019-01-04T07:21:04.861Z,68.07
2019-01-04T07:22:04.881Z,67.50
2019-01-04T07:23:04.905Z,68.16
2019-01-04T07:24:04.925Z,67.97
2019-01-04T07:25:04.944Z,68.07
2019-01-04T07:26:05.013Z,67.88
2019-01-04T07:27:04.992Z,67.88
2019-01-04T07:28:05.009Z,67.88
2019-01-04T07:29:05.031Z,67.50
2019-01-04T07:30:05.049Z,67.60
2019-01-04T07:31:05.070Z,66.84
2019-01-04T07:32:05.091Z,67.50
2019-01-04T07:33:05.114Z,67.88
2019-01-04T07:34:05.136Z,68.16
2019-01-04T07:35:05.153Z,67.88
2019-01-04T07:36:05.175Z,68.07
2019-01-04T07:37:05.201Z,67.79
2019-01-04T07:38:05.220Z,67.60
2019-01-04T07:39:05.238Z,67.88
2019-01-04T07:40:05.261Z,66.75
2019-01-04T07:41:05.284Z,66.65
2019-01-04T07:42:05.306Z,66.84
2019-01-04T07:43:05.322Z,66.75
2019-01-04T07:44:05.344Z,66.84
2019-01-04T07:45:05.366Z,66.94
2019-01-04T07:46:05.387Z,66.94
2019-01-04T07:47:05.409Z,67.41
2019-01-04T07:48:05.430Z,67.69
2019-01-04T07:49:05.454Z,67.32
2019-01-04T07:50:05.475Z,68.16
2019-01-04T07:51:05.496Z,67.60
2019-01-04T07:52:05.513Z,66.94
2019-01-04T07:53:05.539Z,68.07
2019-01-04T07:54:05.557Z,68.35
2019-01-04T07:55:05.582Z,67.88
2019-01-04T07:56:05.619Z,66.65
2019-01-04T07:57:05.621Z,67.22
2019-01-04T07:58:05.641Z,66.37
2019-01-04T07:59:05.663Z,66.65
2019-01-04T08:00:05.686Z,67.03
2019-01-04T08:01:05.707Z,67.13
2019-01-04T08:02:05.729Z,66.56
2019-01-04T08:03:05.751Z,66.18
2019-01-04T08:04:05.769Z,66.47
2019-01-04T08:05:05.790Z,66.09
2019-01-04T08:06:05.812Z,66.09
2019-01-04T08:07:05.840Z,65.90
2019-01-04T08:08:05.854Z,65.99
2019-01-04T08:09:05.875Z,65.71
2019-01-04T08:10:05.898Z,65.90
2019-01-04T08:11:05.917Z,65.61
2019-01-04T08:12:05.940Z,65.42
2019-01-04T08:13:05.966Z,65.05
2019-01-04T08:14:05.983Z,65.71
2019-01-04T08:15:06.004Z,65.52
2019-01-04T08:16:06.024Z,65.42
2019-01-04T08:17:06.047Z,65.52
2019-01-04T08:18:06.071Z,65.71
2019-01-04T08:19:06.090Z,65.99
2019-01-04T08:20:06.110Z,66.18
2019-01-04T08:21:06.133Z,65.90
2019-01-04T08:22:06.155Z,66.09
2019-01-04T08:23:06.178Z,65.99
2019-01-04T08:24:06.196Z,65.90
2019-01-04T08:25:06.221Z,65.61
2019-01-04T08:26:06.243Z,65.52
2019-01-04T08:27:06.260Z,65.71
2019-01-04T08:28:06.283Z,65.90
2019-01-04T08:29:06.304Z,66.94
2019-01-04T08:30:06.326Z,66.28
2019-01-04T08:31:06.347Z,66.28
2019-01-04T08:32:06.368Z,66.18
2019-01-04T08:33:06.391Z,66.09
2019-01-04T08:34:06.413Z,66.65
2019-01-04T08:35:06.436Z,65.99
2019-01-04T08:36:06.459Z,66.18
2019-01-04T08:37:06.479Z,66.56
2019-01-04T08:38:06.498Z,65.90
2019-01-04T08:39:06.519Z,65.99
2019-01-04T08:40:06.543Z,66.09
2019-01-04T08:41:06.563Z,65.52
2019-01-04T08:42:06.584Z,65.61
2019-01-04T08:43:06.609Z,66.18
2019-01-04T08:44:06.630Z,66.18
2019-01-04T08:45:06.653Z,65.61
2019-01-04T08:46:06.671Z,65.23
2019-01-04T08:47:06.693Z,66.09
2019-01-04T08:48:06.713Z,65.61
2019-01-04T08:49:06.739Z,65.90
2019-01-04T08:50:06.762Z,65.90
2019-01-04T08:51:06.781Z,65.61
2019-01-04T08:52:06.815Z,65.71
2019-01-04T08:53:06.828Z,65.42
2019-01-04T08:54:06.846Z,66.09
2019-01-04T08:55:06.867Z,65.99
2019-01-04T08:56:06.889Z,66.56
2019-01-04T08:57:06.910Z,65.61
2019-01-04T08:58:06.933Z,65.42
2019-01-04T08:59:06.955Z,65.99
2019-01-04T09:00:06.975Z,65.14
2019-01-04T09:01:06.996Z,65.52
2019-01-04T09:02:07.019Z,65.61
2019-01-04T09:03:07.040Z,65.61
2019-01-04T09:04:07.063Z,65.61
2019-01-04T09:05:07.084Z,65.71
2019-01-04T09:06:07.106Z,65.61
2019-01-04T09:07:07.129Z,65.61
2019-01-04T09:08:07.150Z,64.86
2019-01-04T09:09:07.171Z,65.52
2019-01-04T09:10:07.194Z,65.33
2019-01-04T09:11:07.215Z,66.09
2019-01-04T09:12:07.237Z,65.71
2019-01-04T09:13:07.260Z,66.37
2019-01-04T09:14:07.284Z,65.23
2019-01-04T09:15:07.305Z,64.58
2019-01-04T09:16:07.327Z,64.86
2019-01-04T09:17:07.347Z,65.99
2019-01-04T09:18:07.370Z,65.14
2019-01-04T09:19:07.390Z,65.05
2019-01-04T09:20:07.415Z,65.33
2019-01-04T09:21:07.437Z,65.33
2019-01-04T09:22:07.458Z,65.14
2019-01-04T09:23:07.478Z,64.58
2019-01-04T09:24:07.499Z,64.76
2019-01-04T09:25:07.523Z,66.09
2019-01-04T09:26:07.546Z,65.33
2019-01-04T09:27:07.564Z,65.80
2019-01-04T09:28:07.586Z,65.42
2019-01-04T09:29:07.610Z,65.52
2019-01-04T09:30:07.632Z,65.71
2019-01-04T09:31:07.654Z,65.90
2019-01-04T09:32:07.678Z,65.61
2019-01-04T09:33:07.696Z,65.99
2019-01-04T09:34:07.721Z,66.37
2019-01-04T09:35:07.747Z,65.90
2019-01-04T09:36:07.768Z,65.08
2019-01-04T09:37:07.785Z,64.32
2019-01-04T09:38:07.807Z,64.23
2019-01-04T09:39:07.830Z,64.04
2019-01-04T09:40:07.851Z,64.14
2019-01-04T09:41:07.877Z,64.61
2019-01-04T09:42:07.896Z,64.70
2019-01-04T09:43:07.916Z,64.32
2019-01-04T09:44:07.938Z,64.23
2019-01-04T09:45:07.962Z,64.14
2019-01-04T09:46:07.984Z,64.51
2019-01-04T09:47:08.006Z,64.70
2019-01-04T09:48:08.028Z,63.85
2019-01-04T09:49:08.056Z,64.14
2019-01-04T09:50:08.075Z,63.29
2019-01-04T09:51:08.102Z,64.98
2019-01-04T09:52:08.117Z,64.04
2019-01-04T09:53:08.138Z,63.95
2019-01-04T09:54:08.162Z,64.23
2019-01-04T09:55:08.186Z,64.51
2019-01-04T09:56:08.205Z,65.55
2019-01-04T09:57:08.233Z,66.03
2019-01-04T09:58:08.250Z,65.46
2019-01-04T09:59:08.272Z,65.46
2019-01-04T10:00:08.295Z,66.69
2019-01-04T10:01:08.316Z,65.93
2019-01-04T10:02:08.344Z,65.65
2019-01-04T10:03:08.366Z,65.65
2019-01-04T10:04:08.383Z,66.31
2019-01-04T10:05:08.407Z,66.41
2019-01-04T10:06:08.428Z,65.46
2019-01-04T10:07:08.449Z,64.98
2019-01-04T10:08:08.472Z,65.46
2019-01-04T10:09:08.495Z,65.84
2019-01-04T10:10:08.517Z,65.93
2019-01-04T10:11:08.538Z,65.93
2019-01-04T10:12:08.562Z,67.44
2019-01-04T10:13:08.583Z,66.03
2019-01-04T10:14:08.610Z,66.59
2019-01-04T10:15:08.629Z,66.41
2019-01-04T10:16:08.650Z,67.25
2019-01-04T10:17:08.673Z,66.78
2019-01-04T10:18:08.697Z,67.91
2019-01-04T10:19:08.719Z,66.12
2019-01-04T10:20:08.744Z,66.78
2019-01-04T10:21:08.766Z,66.41
2019-01-04T10:22:08.786Z,65.93
2019-01-04T10:23:08.809Z,66.22
2019-01-04T10:24:08.835Z,65.74
2019-01-04T10:25:08.853Z,64.42
2019-01-04T10:26:08.880Z,64.98
2019-01-04T10:27:08.901Z,63.19
2019-01-04T10:28:08.921Z,62.06
2019-01-04T10:29:08.950Z,61.58
2019-01-04T10:30:08.970Z,61.21
2019-01-04T10:31:08.989Z,60.55
2019-01-04T10:32:09.011Z,60.27
2019-01-04T10:33:09.035Z,60.27
2019-01-04T10:34:09.065Z,60.08
2019-01-04T10:35:10.618Z,59.70
2019-01-04T10:36:09.099Z,60.08
2019-01-04T10:37:09.123Z,59.79
2019-01-04T10:38:09.149Z,59.51
2019-01-04T10:39:09.169Z,59.70
2019-01-04T10:40:11.136Z,59.98
2019-01-04T10:41:09.215Z,60.74
2019-01-04T10:42:09.236Z,60.55
2019-01-04T10:43:09.258Z,60.08
2019-01-04T10:44:09.284Z,60.46
2019-01-04T10:45:09.306Z,60.17
2019-01-04T10:46:09.330Z,60.08
2019-01-04T10:47:09.349Z,60.46
2019-01-04T10:48:09.372Z,61.11
2019-01-04T10:49:09.398Z,61.30
2019-01-04T10:50:09.418Z,61.58
2019-01-04T10:51:09.442Z,62.44
2019-01-04T10:52:09.466Z,61.49
2019-01-04T10:53:09.485Z,61.96
2019-01-04T10:54:09.508Z,61.80
2019-01-04T10:55:09.536Z,61.30
2019-01-04T10:56:09.555Z,60.67
2019-01-04T10:57:09.574Z,60.64
2019-01-04T10:58:09.600Z,60.58
2019-01-04T10:59:09.620Z,60.39
2019-01-04T11:00:09.663Z,60.36
2019-01-04T11:01:09.666Z,59.82
2019-01-04T11:02:09.692Z,60.08
2019-01-04T11:03:09.711Z,60.30
2019-01-04T11:04:09.732Z,59.60
2019-01-04T11:05:09.758Z,59.92
2019-01-04T11:06:09.778Z,59.54
2019-01-04T11:07:09.802Z,59.82
2019-01-04T11:08:09.824Z,60.27
2019-01-04T11:09:09.845Z,60.49
2019-01-04T11:10:09.869Z,59.35
2019-01-04T11:11:09.894Z,59.35
2019-01-04T11:12:09.914Z,60.67
2019-01-04T11:13:09.939Z,61.52
2019-01-04T11:14:09.961Z,60.01
2019-01-04T11:15:09.984Z,59.73
2019-01-04T11:16:10.005Z,60.77
2019-01-04T11:17:10.029Z,61.43
2019-01-04T11:18:10.103Z,61.61
2019-01-04T11:19:10.074Z,62.66
2019-01-04T11:20:10.096Z,62.09
2019-01-04T11:21:10.118Z,63.32
2019-01-04T11:22:10.144Z,63.51
2019-01-04T11:23:10.167Z,65.40
2019-01-04T11:24:10.187Z,64.83
2019-01-04T11:25:10.210Z,65.30
2019-01-04T11:26:10.236Z,65.97
2019-01-04T11:27:10.258Z,65.87
2019-01-04T11:28:10.278Z,64.45
2019-01-04T11:29:10.302Z,65.11
2019-01-04T11:30:10.324Z,66.63
2019-01-04T11:31:10.347Z,66.25
2019-01-04T11:32:10.370Z,64.17
2019-01-04T11:33:10.393Z,64.45
2019-01-04T11:34:10.421Z,65.30
2019-01-04T11:35:10.442Z,64.73
2019-01-04T11:36:10.464Z,64.07
2019-01-04T11:37:10.486Z,62.37
2019-01-04T11:38:10.514Z,62.28
2019-01-04T11:39:10.531Z,61.99
2019-01-04T11:40:10.606Z,61.61
2019-01-04T11:41:10.580Z,61.33
2019-01-04T11:42:10.601Z,61.99
2019-01-04T11:43:10.623Z,62.66
2019-01-04T11:44:10.651Z,61.99
2019-01-04T11:45:10.670Z,62.28
2019-01-04T11:46:10.694Z,63.23
2019-01-04T11:47:10.718Z,62.75
2019-01-04T11:48:10.740Z,62.37
2019-01-04T11:49:10.766Z,64.36
2019-01-04T11:50:10.786Z,63.42
2019-01-04T11:51:10.809Z,62.75
2019-01-04T11:52:10.831Z,63.51
2019-01-04T11:53:10.855Z,63.26
2019-01-04T11:54:10.879Z,64.29
2019-01-04T11:55:10.901Z,64.86
2019-01-04T11:56:10.924Z,64.29
2019-01-04T11:57:10.947Z,65.15
2019-01-04T11:58:10.970Z,65.62
2019-01-04T11:59:10.995Z,66.00
2019-01-04T12:00:11.044Z,65.62
2019-01-04T12:01:11.042Z,66.19
2019-01-04T12:02:11.063Z,64.48
2019-01-04T12:03:11.087Z,64.29
2019-01-04T12:04:11.109Z,64.01
2019-01-04T12:05:11.135Z,63.45
2019-01-04T12:06:11.157Z,62.69
2019-01-04T12:07:11.178Z,61.74
2019-01-04T12:08:11.202Z,62.50
2019-01-04T12:09:11.225Z,62.02
2019-01-04T12:10:11.250Z,61.36
2019-01-04T12:11:11.275Z,61.46
2019-01-04T12:12:11.295Z,61.18
2019-01-04T12:13:11.320Z,61.27
2019-01-04T12:14:11.342Z,60.23
2019-01-04T12:15:11.366Z,59.47
2019-01-04T12:16:11.389Z,59.66
2019-01-04T12:17:11.415Z,59.00
2019-01-04T12:18:11.437Z,59.19
2019-01-04T12:19:11.465Z,58.62
2019-01-04T12:20:11.488Z,57.20
2019-01-04T12:21:11.507Z,57.49
2019-01-04T12:22:11.530Z,57.20
2019-01-04T12:23:11.551Z,57.20
2019-01-04T12:24:11.575Z,57.01
2019-01-04T12:25:11.598Z,56.82
2019-01-04T12:26:11.625Z,56.45
2019-01-04T12:27:11.646Z,56.07
2019-01-04T12:28:11.669Z,55.69
2019-01-04T12:29:11.694Z,55.31
2019-01-04T12:30:11.720Z,55.31
2019-01-04T12:31:11.738Z,54.84
2019-01-04T12:32:11.784Z,54.37
2019-01-04T12:33:11.786Z,53.99
2019-01-04T12:34:16.632Z,54.37
2019-01-04T12:35:11.832Z,53.89
2019-01-04T12:36:11.856Z,53.70
2019-01-04T12:37:11.879Z,53.52
2019-01-04T12:38:11.903Z,53.33
2019-01-04T12:39:11.926Z,53.14
2019-01-04T12:40:11.949Z,53.05
2019-01-04T12:41:11.973Z,53.23
2019-01-04T12:42:11.995Z,52.76
2019-01-04T12:43:12.020Z,52.95
2019-01-04T12:44:12.040Z,52.67
2019-01-04T12:45:12.067Z,52.76
2019-01-04T12:46:12.088Z,52.76
2019-01-04T12:47:12.110Z,52.57
2019-01-04T12:48:12.134Z,52.67
2019-01-04T12:49:12.156Z,52.48
2019-01-04T12:50:12.183Z,52.86
2019-01-04T12:51:12.208Z,52.57
2019-01-04T12:52:12.230Z,52.67
2019-01-04T12:53:12.252Z,52.67